createdAt,value
2022-11-01T00:00:26.009Z,59.87
2022-11-01T00:01:25.989Z,59.03
2022-11-01T00:02:25.966Z,61.21
2022-11-01T00:03:25.935Z,70.86
2022-11-01T00:04:25.941Z,60.53
2022-11-01T00:05:25.920Z,58.18
2022-11-01T00:06:25.946Z,63.57
2022-11-01T00:07:25.899Z,58.00
2022-11-01T00:08:25.918Z,64.52
2022-11-01T00:09:25.895Z,59.94
2022-11-01T00:10:25.909Z,74.66
2022-11-01T00:11:25.900Z,64.94
2022-11-01T00:12:25.877Z,59.60
2022-11-01T00:13:25.888Z,59.55
2022-11-01T00:14:25.861Z,59.51
2022-11-01T00:15:25.860Z,65.11
2022-11-01T00:16:25.849Z,59.44
2022-11-01T00:17:25.951Z,59.29
2022-11-01T00:18:25.848Z,60.22
2022-11-01T00:19:25.841Z,64.61
2022-11-01T00:20:25.820Z,64.99
2022-11-01T00:21:25.808Z,65.08
2022-11-01T00:22:25.852Z,59.03
2022-11-01T00:23:25.818Z,59.20
2022-11-01T00:24:25.813Z,58.96
2022-11-01T00:25:25.802Z,59.76
2022-11-01T00:26:25.800Z,69.51
2022-11-01T00:27:25.788Z,61.00
2022-11-01T00:28:25.894Z,64.55
2022-11-01T00:29:25.764Z,59.65
2022-11-01T00:30:25.771Z,59.74
2022-11-01T00:31:25.766Z,64.33
2022-11-01T00:32:25.761Z,71.26
2022-11-01T00:33:25.851Z,59.74
2022-11-01T00:34:25.751Z,60.38
2022-11-01T00:35:25.735Z,64.37
2022-11-01T00:36:25.733Z,59.25
2022-11-01T00:37:25.701Z,59.07
2022-11-01T00:38:25.726Z,59.41
2022-11-01T00:39:30.384Z,65.47
2022-11-01T00:40:27.715Z,63.36
2022-11-01T00:41:25.710Z,59.64
2022-11-01T00:42:25.700Z,59.21
2022-11-01T00:43:25.693Z,66.21
2022-11-01T00:44:25.790Z,73.32
2022-11-01T00:45:25.653Z,60.58
2022-11-01T00:46:25.675Z,70.11
2022-11-01T00:47:25.665Z,68.83
2022-11-01T00:48:25.651Z,64.49
2022-11-01T00:49:25.635Z,69.16
2022-11-01T00:50:25.677Z,60.90
2022-11-01T00:51:25.640Z,69.63
2022-11-01T00:52:25.629Z,70.95
2022-11-01T00:53:25.620Z,65.33
2022-11-01T00:54:25.625Z,69.33
2022-11-01T00:55:25.714Z,60.70
2022-11-01T00:56:25.604Z,64.42
2022-11-01T00:57:25.611Z,66.00
2022-11-01T00:58:25.589Z,67.77
2022-11-01T00:59:25.583Z,67.63
2022-11-01T01:00:25.594Z,67.97
2022-11-01T01:01:25.704Z,66.69
2022-11-01T01:02:25.691Z,72.45
2022-11-01T01:03:25.564Z,66.10
2022-11-01T01:04:25.582Z,61.72
2022-11-01T01:05:25.549Z,65.41
2022-11-01T01:06:25.654Z,68.54
2022-11-01T01:07:25.543Z,66.23
2022-11-01T01:08:25.535Z,61.80
2022-11-01T01:09:25.516Z,68.81
2022-11-01T01:10:25.516Z,69.09
2022-11-01T01:11:25.512Z,60.91
2022-11-01T01:12:25.544Z,61.38
2022-11-01T01:13:25.491Z,61.64
2022-11-01T01:14:29.890Z,70.65
2022-11-01T01:15:27.479Z,69.04
2022-11-01T01:16:25.486Z,61.61
2022-11-01T01:17:27.620Z,72.38
2022-11-01T01:18:25.472Z,72.74
2022-11-01T01:19:25.467Z,69.93
2022-11-01T01:20:25.451Z,64.49
2022-11-01T01:21:25.447Z,62.27
2022-11-01T01:22:25.440Z,60.94
2022-11-01T01:23:25.471Z,73.67
2022-11-01T01:24:25.435Z,60.99
2022-11-01T01:25:25.421Z,60.50
2022-11-01T01:26:25.430Z,61.52
2022-11-01T01:27:25.424Z,65.62
2022-11-01T01:28:25.525Z,79.97
2022-11-01T01:29:25.411Z,66.72
2022-11-01T01:30:25.389Z,66.42
2022-11-01T01:31:25.392Z,69.89
2022-11-01T01:32:25.389Z,76.00
2022-11-01T01:33:25.357Z,64.26
2022-11-01T01:34:25.397Z,73.83
2022-11-01T01:35:25.364Z,74.07
2022-11-01T01:36:25.363Z,74.85
2022-11-01T01:37:25.357Z,70.24
2022-11-01T01:38:25.336Z,76.16
2022-11-01T01:39:25.467Z,69.74
2022-11-01T01:40:25.321Z,78.03
2022-11-01T01:41:25.307Z,75.62
2022-11-01T01:42:25.334Z,62.89
2022-11-01T01:43:25.317Z,71.64
2022-11-01T01:44:25.324Z,75.01
2022-11-01T01:45:25.413Z,69.63
2022-11-01T01:46:25.290Z,68.95
2022-11-01T01:47:25.279Z,66.88
2022-11-01T01:48:25.267Z,65.15
2022-11-01T01:49:25.279Z,61.53
2022-11-01T01:50:25.279Z,61.44
2022-11-01T01:51:25.274Z,73.30
2022-11-01T01:52:25.269Z,72.75
2022-11-01T01:53:25.239Z,65.31
2022-11-01T01:54:25.258Z,60.78
2022-11-01T01:55:25.253Z,66.95
2022-11-01T01:56:25.353Z,65.75
2022-11-01T01:57:25.221Z,63.18
2022-11-01T01:58:25.224Z,79.73
2022-11-01T01:59:25.209Z,62.70
2022-11-01T02:00:25.202Z,60.39
2022-11-01T02:01:25.347Z,59.88
2022-11-01T02:02:25.280Z,60.00
2022-11-01T02:03:25.212Z,69.38
2022-11-01T02:04:25.213Z,64.35
2022-11-01T02:05:25.176Z,64.55
2022-11-01T02:06:25.200Z,60.73
2022-11-01T02:07:25.292Z,60.82
2022-11-01T02:08:25.152Z,66.25
2022-11-01T02:09:28.177Z,60.81
2022-11-01T02:10:26.148Z,60.82
2022-11-01T02:11:25.183Z,72.38
2022-11-01T02:12:25.261Z,65.73
2022-11-01T02:13:25.126Z,68.13
2022-11-01T02:14:26.132Z,59.70
2022-11-01T02:15:25.109Z,59.28
2022-11-01T02:16:25.104Z,58.73
2022-11-01T02:17:25.102Z,70.86
2022-11-01T02:18:25.102Z,60.16
2022-11-01T02:19:25.080Z,66.47
2022-11-01T02:20:25.084Z,64.39
2022-11-01T02:21:25.073Z,60.25
2022-11-01T02:22:25.072Z,65.93
2022-11-01T02:23:25.096Z,69.04
2022-11-01T02:24:25.050Z,64.55
2022-11-01T02:25:25.035Z,64.94
2022-11-01T02:26:25.042Z,66.33
2022-11-01T02:27:25.040Z,64.63
2022-11-01T02:28:25.031Z,59.10
2022-11-01T02:29:25.140Z,62.55
2022-11-01T02:30:25.019Z,59.62
2022-11-01T02:31:24.999Z,68.08
2022-11-01T02:32:25.020Z,74.10
2022-11-01T02:33:25.001Z,63.35
2022-11-01T02:34:25.016Z,72.34
2022-11-01T02:35:24.991Z,68.05
2022-11-01T02:36:24.986Z,67.63
2022-11-01T02:37:24.983Z,61.47
2022-11-01T02:38:24.973Z,59.81
2022-11-01T02:39:24.973Z,64.80
2022-11-01T02:40:25.256Z,67.66
2022-11-01T02:41:24.965Z,76.88
2022-11-01T02:42:24.952Z,65.32
2022-11-01T02:43:24.943Z,60.33
2022-11-01T02:44:24.927Z,59.98
2022-11-01T02:45:24.958Z,59.33
2022-11-01T02:46:24.918Z,72.69
2022-11-01T02:47:24.913Z,60.90
2022-11-01T02:48:24.919Z,59.04
2022-11-01T02:49:24.891Z,65.55
2022-11-01T02:50:24.894Z,69.28
2022-11-01T02:51:24.991Z,60.22
2022-11-01T02:52:24.895Z,67.73
2022-11-01T02:53:24.852Z,59.06
2022-11-01T02:54:24.862Z,67.84
2022-11-01T02:55:24.862Z,62.77
2022-11-01T02:56:24.884Z,76.08
2022-11-01T02:57:24.837Z,60.83
2022-11-01T02:58:24.838Z,62.09
2022-11-01T02:59:24.844Z,65.70
2022-11-01T03:00:24.827Z,58.00
2022-11-01T03:01:24.857Z,57.91
2022-11-01T03:02:24.852Z,57.66
2022-11-01T03:03:24.804Z,57.61
2022-11-01T03:04:24.796Z,57.98
2022-11-01T03:05:24.806Z,57.83
2022-11-01T03:06:24.791Z,58.46
2022-11-01T03:07:24.891Z,67.19
2022-11-01T03:08:24.794Z,65.46
2022-11-01T03:09:24.772Z,60.51
2022-11-01T03:10:24.759Z,61.45
2022-11-01T03:11:24.756Z,59.36
2022-11-01T03:12:24.783Z,58.60
2022-11-01T03:13:24.773Z,64.30
2022-11-01T03:14:24.735Z,59.20
2022-11-01T03:15:24.727Z,65.05
2022-11-01T03:16:24.724Z,59.42
2022-11-01T03:17:24.725Z,65.33
2022-11-01T03:18:24.728Z,67.07
2022-11-01T03:19:24.710Z,65.77
2022-11-01T03:20:24.718Z,69.47
2022-11-01T03:21:24.688Z,68.02
2022-11-01T03:22:24.679Z,60.79
2022-11-01T03:23:24.682Z,64.75
2022-11-01T03:24:24.715Z,68.43
2022-11-01T03:25:24.663Z,67.81
2022-11-01T03:26:24.663Z,71.44
2022-11-01T03:27:24.657Z,60.22
2022-11-01T03:28:24.662Z,59.09
2022-11-01T03:29:24.765Z,59.59
2022-11-01T03:30:24.640Z,65.07
2022-11-01T03:31:24.631Z,62.76
2022-11-01T03:32:24.629Z,65.06
2022-11-01T03:33:24.600Z,65.08
2022-11-01T03:34:24.619Z,59.31
2022-11-01T03:35:24.655Z,63.64
2022-11-01T03:36:24.594Z,59.08
2022-11-01T03:37:24.586Z,74.41
2022-11-01T03:38:24.583Z,66.17
2022-11-01T03:39:24.572Z,59.56
2022-11-01T03:40:24.599Z,65.21
2022-11-01T03:41:24.559Z,64.43
2022-11-01T03:42:24.567Z,62.82
2022-11-01T03:43:24.552Z,68.08
2022-11-01T03:44:24.550Z,65.63
2022-11-01T03:46:25.558Z,65.98
2022-11-01T03:47:24.530Z,62.76
2022-11-01T03:48:24.511Z,66.11
2022-11-01T03:49:24.507Z,73.98
2022-11-01T03:50:24.500Z,65.63
2022-11-01T03:51:24.516Z,65.96
2022-11-01T03:52:24.496Z,65.18
2022-11-01T03:53:24.486Z,66.63
2022-11-01T03:54:24.496Z,61.83
2022-11-01T03:55:24.478Z,65.29
2022-11-01T03:56:24.483Z,63.74
2022-11-01T03:57:24.470Z,60.42
2022-11-01T03:58:24.443Z,65.56
2022-11-01T03:59:24.448Z,73.71
2022-11-01T04:00:24.421Z,66.32
2022-11-01T04:01:24.655Z,60.95
2022-11-01T04:02:24.434Z,68.13
2022-11-01T04:03:24.424Z,64.23
2022-11-01T04:04:24.429Z,70.50
2022-11-01T04:05:24.404Z,67.99
2022-11-01T04:06:24.413Z,66.54
2022-11-01T04:07:24.415Z,77.94
2022-11-01T04:08:24.383Z,71.74
2022-11-01T04:09:24.387Z,69.36
2022-11-01T04:10:24.436Z,74.12
2022-11-01T04:11:24.382Z,73.87
2022-11-01T04:12:24.370Z,67.21
2022-11-01T04:13:24.365Z,74.58
2022-11-01T04:14:24.350Z,66.93
2022-11-01T04:15:24.362Z,67.67
2022-11-01T04:16:24.349Z,73.27
2022-11-01T04:17:24.344Z,61.00
2022-11-01T04:18:24.331Z,70.86
2022-11-01T04:19:24.321Z,78.55
2022-11-01T04:20:24.299Z,66.32
2022-11-01T04:21:24.323Z,72.76
2022-11-01T04:22:24.742Z,67.99
2022-11-01T04:23:24.301Z,68.36
2022-11-01T04:24:24.290Z,72.19
2022-11-01T04:25:24.277Z,77.84
2022-11-01T04:26:24.297Z,78.41
2022-11-01T04:27:24.303Z,68.73
2022-11-01T04:28:24.260Z,77.98
2022-11-01T04:29:24.271Z,73.99
2022-11-01T04:30:24.258Z,69.07
2022-11-01T04:31:24.268Z,73.22
2022-11-01T04:32:24.252Z,64.63
2022-11-01T04:33:24.228Z,78.01
2022-11-01T04:34:24.247Z,75.22
2022-11-01T04:35:24.213Z,70.24
2022-11-01T04:36:24.252Z,73.88
2022-11-01T04:37:24.245Z,77.24
2022-11-01T04:38:24.210Z,72.14
2022-11-01T04:39:24.194Z,81.52
2022-11-01T04:40:24.184Z,73.58
2022-11-01T04:41:24.195Z,73.20
2022-11-01T04:42:24.201Z,69.24
2022-11-01T04:43:24.184Z,72.06
2022-11-01T04:44:24.177Z,78.08
2022-11-01T04:45:24.164Z,68.81
2022-11-01T04:46:24.160Z,74.36
2022-11-01T04:47:24.224Z,68.40
2022-11-01T04:48:24.126Z,75.98
2022-11-01T04:49:24.126Z,70.96
2022-11-01T04:50:24.124Z,60.12
2022-11-01T04:51:24.204Z,69.49
2022-11-01T04:52:24.187Z,65.62
2022-11-01T04:53:24.117Z,72.04
2022-11-01T04:54:24.099Z,72.76
2022-11-01T04:55:24.147Z,68.03
2022-11-01T04:56:24.081Z,68.66
2022-11-01T04:57:24.244Z,69.73
2022-11-01T04:58:24.082Z,71.73
2022-11-01T04:59:24.074Z,73.07
2022-11-01T05:00:24.061Z,72.05
2022-11-01T05:01:24.135Z,74.30
2022-11-01T05:02:24.067Z,77.46
2022-11-01T05:03:24.160Z,70.78
2022-11-01T05:04:24.041Z,79.44
2022-11-01T05:05:24.023Z,76.88
2022-11-01T05:06:24.023Z,77.53
2022-11-01T05:07:24.029Z,73.36
2022-11-01T05:08:24.040Z,79.19
2022-11-01T05:09:24.005Z,78.14
2022-11-01T05:10:23.985Z,73.51
2022-11-01T05:11:23.984Z,79.99
2022-11-01T05:12:23.984Z,77.08
2022-11-01T05:13:23.979Z,82.05
2022-11-01T05:14:24.014Z,79.32
2022-11-01T05:15:23.972Z,81.38
2022-11-01T05:16:23.962Z,74.02
2022-11-01T05:17:23.960Z,77.78
2022-11-01T05:18:23.952Z,72.16
2022-11-01T05:19:23.956Z,83.31
2022-11-01T05:20:23.951Z,73.57
2022-11-01T05:21:23.939Z,81.66
2022-11-01T05:22:23.914Z,78.72
2022-11-01T05:23:23.902Z,72.44
2022-11-01T05:24:23.905Z,79.19
2022-11-01T05:25:24.038Z,78.28
2022-11-01T05:26:23.896Z,74.33
2022-11-01T05:27:23.902Z,76.69
2022-11-01T05:28:23.868Z,71.57
2022-11-01T05:29:32.648Z,76.27
2022-11-01T05:30:25.971Z,78.79
2022-11-01T05:31:23.866Z,78.29
2022-11-01T05:32:23.832Z,80.85
2022-11-01T05:33:23.842Z,80.15
2022-11-01T05:34:23.847Z,76.50
2022-11-01T05:35:23.920Z,81.50
2022-11-01T05:36:23.859Z,81.41
2022-11-01T05:37:27.971Z,80.74
2022-11-01T05:38:24.801Z,75.12
2022-11-01T05:39:23.797Z,75.19
2022-11-01T05:40:23.814Z,82.12
2022-11-01T05:41:23.893Z,78.02
2022-11-01T05:42:23.837Z,77.73
2022-11-01T05:43:23.807Z,77.47
2022-11-01T05:44:23.764Z,78.85
2022-11-01T05:45:23.781Z,78.68
2022-11-01T05:46:23.762Z,80.08
2022-11-01T05:47:23.878Z,79.23
2022-11-01T05:48:23.723Z,78.21
2022-11-01T05:49:23.741Z,83.28
2022-11-01T05:50:23.723Z,82.60
2022-11-01T05:51:23.792Z,75.60
2022-11-01T05:52:23.828Z,81.63
2022-11-01T05:53:23.768Z,79.93
2022-11-01T05:54:23.712Z,74.13
2022-11-01T05:55:23.710Z,87.39
2022-11-01T05:56:23.711Z,78.58
2022-11-01T05:57:23.703Z,80.41
2022-11-01T05:58:27.928Z,82.47
2022-11-01T05:59:24.665Z,86.27
2022-11-01T06:00:23.667Z,80.31
2022-11-01T06:01:23.700Z,79.61
2022-11-01T06:02:23.724Z,85.48
2022-11-01T06:03:23.770Z,79.64
2022-11-01T06:04:23.633Z,68.53
2022-11-01T06:05:23.643Z,76.62
2022-11-01T06:06:23.645Z,81.10
2022-11-01T06:07:23.628Z,82.69
2022-11-01T06:08:23.623Z,77.31
2022-11-01T06:09:23.643Z,82.08
2022-11-01T06:10:23.618Z,81.72
2022-11-01T06:11:23.616Z,75.09
2022-11-01T06:12:23.581Z,81.02
2022-11-01T06:13:23.589Z,82.71
2022-11-01T06:14:23.642Z,81.13
2022-11-01T06:15:23.590Z,79.10
2022-11-01T06:16:23.566Z,81.30
2022-11-01T06:17:23.574Z,85.17
2022-11-01T06:18:23.553Z,83.34
2022-11-01T06:19:23.549Z,84.95
2022-11-01T06:20:23.665Z,82.14
2022-11-01T06:21:27.580Z,83.89
2022-11-01T06:22:24.528Z,76.82
2022-11-01T06:23:23.516Z,81.76
2022-11-01T06:24:23.514Z,89.78
2022-11-01T06:25:23.622Z,83.23
2022-11-01T06:26:23.516Z,81.03
2022-11-01T06:27:23.501Z,80.11
2022-11-01T06:28:23.486Z,82.37
2022-11-01T06:29:23.491Z,81.95
2022-11-01T06:30:23.496Z,83.11
2022-11-01T06:31:23.594Z,82.95
2022-11-01T06:32:23.462Z,84.13
2022-11-01T06:33:23.458Z,79.31
2022-11-01T06:34:23.478Z,81.06
2022-11-01T06:35:23.493Z,81.18
2022-11-01T06:36:23.463Z,85.17
2022-11-01T06:37:23.450Z,77.55
2022-11-01T06:38:23.449Z,79.78
2022-11-01T06:39:23.440Z,85.56
2022-11-01T06:40:23.419Z,77.95
2022-11-01T06:41:23.430Z,81.74
2022-11-01T06:42:23.494Z,86.15
2022-11-01T06:43:23.397Z,82.75
2022-11-01T06:44:23.394Z,79.40
2022-11-01T06:45:23.391Z,78.81
2022-11-01T06:46:23.400Z,82.60
2022-11-01T06:47:23.479Z,81.58
2022-11-01T06:48:23.455Z,85.93
2022-11-01T06:49:23.365Z,79.73
2022-11-01T06:50:23.432Z,82.71
2022-11-01T06:51:24.405Z,87.56
2022-11-01T06:52:23.349Z,83.25
2022-11-01T06:53:23.495Z,81.88
2022-11-01T06:54:23.329Z,85.51
2022-11-01T06:55:24.352Z,75.72
2022-11-01T06:56:23.343Z,79.64
2022-11-01T06:57:23.328Z,81.52
2022-11-01T06:58:23.354Z,80.18
2022-11-01T06:59:23.305Z,84.05
2022-11-01T07:00:23.308Z,83.03
2022-11-01T07:01:23.353Z,85.87
2022-11-01T07:02:28.500Z,81.68
2022-11-01T07:03:25.319Z,85.55
2022-11-01T07:04:23.269Z,77.16
2022-11-01T07:05:23.301Z,81.65
2022-11-01T07:06:23.266Z,83.67
2022-11-01T07:07:23.266Z,84.81
2022-11-01T07:08:23.254Z,77.44
2022-11-01T07:09:23.360Z,72.64
2022-11-01T07:10:23.248Z,77.52
2022-11-01T07:11:27.442Z,76.85
2022-11-01T07:12:24.227Z,75.67
2022-11-01T07:13:23.223Z,80.36
2022-11-01T07:14:23.249Z,80.16
2022-11-01T07:15:23.206Z,83.30
2022-11-01T07:16:23.204Z,78.73
2022-11-01T07:17:23.222Z,73.95
2022-11-01T07:18:23.207Z,86.81
2022-11-01T07:19:23.183Z,75.48
2022-11-01T07:20:23.213Z,78.98
2022-11-01T07:21:23.175Z,78.05
2022-11-01T07:22:23.154Z,81.76
2022-11-01T07:23:23.155Z,81.64
2022-11-01T07:24:23.155Z,84.35
2022-11-01T07:25:23.275Z,77.94
2022-11-01T07:26:23.146Z,72.07
2022-11-01T07:27:23.161Z,79.45
2022-11-01T07:28:23.116Z,80.13
2022-11-01T07:29:23.143Z,76.75
2022-11-01T07:30:23.131Z,80.61
2022-11-01T07:31:23.295Z,77.01
2022-11-01T07:32:23.103Z,79.37
2022-11-01T07:33:23.126Z,77.52
2022-11-01T07:34:23.111Z,80.29
2022-11-01T07:35:23.090Z,77.16
2022-11-01T07:36:23.134Z,75.87
2022-11-01T07:37:23.134Z,78.37
2022-11-01T07:38:23.062Z,83.98
2022-11-01T07:39:23.062Z,81.79
2022-11-01T07:40:23.044Z,80.73
2022-11-01T07:41:23.063Z,85.14
2022-11-01T07:42:23.184Z,75.73
2022-11-01T07:43:23.045Z,73.83
2022-11-01T07:44:23.041Z,73.18
2022-11-01T07:45:23.029Z,80.24
2022-11-01T07:46:23.002Z,66.19
2022-11-01T07:47:23.046Z,73.47
2022-11-01T07:48:23.001Z,77.07
2022-11-01T07:49:23.007Z,77.06
2022-11-01T07:50:23.005Z,83.43
2022-11-01T07:51:22.994Z,72.33
2022-11-01T07:52:22.993Z,77.74
2022-11-01T07:53:23.002Z,71.99
2022-11-01T07:54:23.012Z,81.85
2022-11-01T07:55:22.965Z,74.74
2022-11-01T07:56:22.975Z,76.62
2022-11-01T07:57:22.976Z,69.90
2022-11-01T07:58:23.056Z,74.10
2022-11-01T07:59:22.953Z,82.73
2022-11-01T08:00:23.010Z,68.31
2022-11-01T08:01:23.064Z,69.71
2022-11-01T08:02:23.063Z,73.10
2022-11-01T08:03:22.925Z,71.67
2022-11-01T08:04:23.060Z,83.39
2022-11-01T08:05:22.896Z,76.34
2022-11-01T08:07:22.912Z,79.13
2022-11-01T08:08:22.893Z,79.36
2022-11-01T08:09:22.959Z,84.06
2022-11-01T08:10:22.886Z,71.33
2022-11-01T08:11:22.859Z,73.41
2022-11-01T08:12:22.869Z,72.88
2022-11-01T08:13:22.863Z,76.97
2022-11-01T08:14:22.907Z,77.95
2022-11-01T08:15:22.946Z,73.10
2022-11-01T08:16:22.844Z,73.36
2022-11-01T08:17:22.833Z,74.96
2022-11-01T08:18:22.836Z,79.47
2022-11-01T08:19:22.814Z,70.58
2022-11-01T08:20:22.855Z,77.81
2022-11-01T08:21:22.796Z,76.68
2022-11-01T08:22:22.798Z,68.72
2022-11-01T08:23:22.794Z,79.78
2022-11-01T08:24:22.800Z,67.33
2022-11-01T08:25:22.787Z,78.53
2022-11-01T08:26:22.808Z,82.62
2022-11-01T08:27:22.784Z,76.53
2022-11-01T08:28:22.772Z,77.63
2022-11-01T08:29:22.751Z,68.71
2022-11-01T08:30:22.748Z,81.75
2022-11-01T08:31:22.777Z,80.94
2022-11-01T08:32:22.755Z,70.06
2022-11-01T08:33:22.739Z,77.54
2022-11-01T08:34:22.719Z,76.52
2022-11-01T08:35:22.708Z,82.68
2022-11-01T08:36:22.711Z,70.91
2022-11-01T08:37:22.742Z,81.19
2022-11-01T08:38:22.705Z,79.26
2022-11-01T08:39:22.704Z,79.86
2022-11-01T08:40:22.682Z,75.46
2022-11-01T08:41:22.683Z,73.65
2022-11-01T08:42:22.795Z,77.57
2022-11-01T08:43:22.676Z,78.69
2022-11-01T08:44:22.669Z,73.49
2022-11-01T08:45:22.671Z,81.73
2022-11-01T08:46:22.669Z,75.79
2022-11-01T08:47:22.647Z,72.42
2022-11-01T08:48:22.760Z,77.91
2022-11-01T08:49:22.644Z,68.28
2022-11-01T08:50:22.632Z,80.21
2022-11-01T08:51:22.618Z,80.43
2022-11-01T08:52:22.620Z,77.91
2022-11-01T08:53:22.653Z,72.65
2022-11-01T08:54:22.599Z,70.44
2022-11-01T08:55:22.654Z,82.87
2022-11-01T08:56:22.594Z,78.33
2022-11-01T08:57:22.588Z,81.72
2022-11-01T08:58:22.590Z,76.22
2022-11-01T08:59:22.609Z,74.01
2022-11-01T09:00:22.585Z,82.07
2022-11-01T09:01:22.698Z,78.29
2022-11-01T09:02:22.678Z,76.79
2022-11-01T09:03:22.562Z,82.40
2022-11-01T09:04:22.729Z,76.24
2022-11-01T09:05:22.544Z,73.57
2022-11-01T09:06:22.552Z,74.92
2022-11-01T09:07:22.543Z,80.85
2022-11-01T09:08:22.537Z,73.84
2022-11-01T09:09:22.531Z,70.79
2022-11-01T09:10:22.663Z,81.45
2022-11-01T09:11:22.510Z,74.15
2022-11-01T09:12:24.794Z,81.38
2022-11-01T09:13:23.500Z,77.59
2022-11-01T09:14:22.488Z,69.09
2022-11-01T09:15:22.585Z,72.79
2022-11-01T09:16:22.484Z,70.06
2022-11-01T09:17:22.496Z,78.35
2022-11-01T09:18:22.475Z,74.57
2022-11-01T09:19:22.465Z,71.67
2022-11-01T09:20:22.569Z,80.57
2022-11-01T09:21:22.485Z,71.00
2022-11-01T09:22:22.447Z,69.24
2022-11-01T09:23:22.431Z,74.37
2022-11-01T09:24:22.445Z,73.61
2022-11-01T09:25:22.413Z,70.16
2022-11-01T09:26:22.453Z,79.52
2022-11-01T09:27:22.411Z,72.25
2022-11-01T09:28:22.407Z,72.03
2022-11-01T09:29:22.473Z,77.62
2022-11-01T09:30:23.443Z,78.25
2022-11-01T09:31:22.415Z,81.68
2022-11-01T09:32:22.504Z,67.38
2022-11-01T09:33:22.413Z,78.66
2022-11-01T09:34:22.385Z,74.81
2022-11-01T09:35:22.366Z,75.42
2022-11-01T09:36:22.382Z,80.26
2022-11-01T09:37:22.390Z,75.23
2022-11-01T09:38:22.371Z,80.71
2022-11-01T09:39:22.350Z,78.82
2022-11-01T09:40:22.441Z,75.74
2022-11-01T09:41:22.335Z,78.10
2022-11-01T09:42:22.342Z,80.85
2022-11-01T09:43:22.371Z,72.13
2022-11-01T09:44:22.331Z,70.53
2022-11-01T09:45:22.317Z,81.64
2022-11-01T09:47:23.299Z,66.60
2022-11-01T09:48:22.336Z,74.02
2022-11-01T09:49:22.274Z,75.23
2022-11-01T09:50:22.276Z,74.93
2022-11-01T09:51:22.280Z,73.78
2022-11-01T09:52:22.265Z,71.60
2022-11-01T09:53:22.256Z,75.48
2022-11-01T09:54:22.394Z,78.46
2022-11-01T09:55:22.250Z,76.04
2022-11-01T09:56:22.251Z,74.10
2022-11-01T09:57:22.216Z,65.41
2022-11-01T09:58:22.232Z,69.29
2022-11-01T09:59:22.269Z,73.67
2022-11-01T10:00:22.211Z,83.20
2022-11-01T10:01:22.307Z,83.75
2022-11-01T10:02:23.238Z,75.39
2022-11-01T10:03:22.201Z,82.21
2022-11-01T10:04:22.201Z,71.18
2022-11-01T10:05:22.215Z,80.46
2022-11-01T10:06:22.188Z,71.58
2022-11-01T10:07:22.177Z,75.60
2022-11-01T10:08:22.166Z,68.96
2022-11-01T10:09:22.179Z,71.26
2022-11-01T10:10:22.181Z,79.58
2022-11-01T10:11:22.153Z,61.18
2022-11-01T10:12:22.163Z,78.84
2022-11-01T10:13:22.142Z,76.14
2022-11-01T10:14:22.135Z,69.80
2022-11-01T10:15:22.127Z,76.27
2022-11-01T10:16:23.237Z,78.28
2022-11-01T10:17:22.126Z,75.93
2022-11-01T10:18:22.100Z,71.98
2022-11-01T10:19:22.114Z,74.31
2022-11-01T10:20:22.120Z,73.40
2022-11-01T10:21:23.536Z,73.41
2022-11-01T10:22:22.103Z,73.72
2022-11-01T10:23:22.079Z,76.76
2022-11-01T10:24:56.238Z,69.72
2022-11-01T10:25:22.106Z,82.48
2022-11-01T10:26:22.798Z,81.11
2022-11-01T10:27:22.104Z,64.93
2022-11-01T10:28:22.056Z,75.73
2022-11-01T10:29:22.064Z,71.94
2022-11-01T10:30:22.044Z,77.08
2022-11-01T10:31:22.045Z,74.57
2022-11-01T10:32:23.091Z,83.58
2022-11-01T10:33:22.051Z,72.03
2022-11-01T10:34:22.048Z,70.28
2022-11-01T10:35:22.058Z,75.67
2022-11-01T10:36:22.161Z,77.31
2022-11-01T10:37:22.033Z,80.48
2022-11-01T10:38:26.734Z,71.73
2022-11-01T10:40:24.007Z,73.65
2022-11-01T10:41:22.008Z,70.55
2022-11-01T10:42:22.004Z,77.79
2022-11-01T10:43:22.120Z,70.60
2022-11-01T10:44:22.004Z,75.02
2022-11-01T10:45:21.969Z,73.91
2022-11-01T10:46:21.975Z,71.93
2022-11-01T10:47:22.015Z,77.91
2022-11-01T10:48:21.966Z,83.61
2022-11-01T10:49:24.395Z,63.58
2022-11-01T10:50:21.960Z,77.03
2022-11-01T10:51:27.530Z,71.48
2022-11-01T10:52:22.943Z,77.99
2022-11-01T10:53:21.936Z,76.80
2022-11-01T10:54:22.088Z,75.60
2022-11-01T10:55:21.931Z,82.09
2022-11-01T10:56:24.012Z,81.50
2022-11-01T10:57:21.925Z,70.95
2022-11-01T10:58:21.950Z,74.09
2022-11-01T10:59:21.913Z,72.36
2022-11-01T11:00:21.934Z,74.87
2022-11-01T11:01:22.140Z,76.62
2022-11-01T11:02:21.924Z,73.97
2022-11-01T11:03:21.869Z,76.33
2022-11-01T11:04:21.883Z,78.81
2022-11-01T11:05:21.915Z,73.52
2022-11-01T11:06:21.878Z,69.91
2022-11-01T11:07:24.238Z,73.61
2022-11-01T11:08:21.865Z,77.09
2022-11-01T11:09:21.825Z,68.57
2022-11-01T11:10:24.038Z,73.73
2022-11-01T11:11:21.867Z,65.19
2022-11-01T11:12:21.842Z,77.65
2022-11-01T11:13:21.821Z,82.27
2022-11-01T11:14:21.813Z,76.44
2022-11-01T11:15:21.784Z,72.23
2022-11-01T11:16:21.904Z,73.96
2022-11-01T11:17:21.807Z,80.39
2022-11-01T11:18:21.790Z,77.50
2022-11-01T11:19:21.893Z,70.38
2022-11-01T11:20:21.840Z,70.26
2022-11-01T11:21:25.652Z,66.43
2022-11-01T11:22:23.786Z,71.76
2022-11-01T11:23:21.771Z,73.50
2022-11-01T11:24:21.758Z,70.48
2022-11-01T11:25:21.780Z,79.66
2022-11-01T11:26:21.745Z,68.41
2022-11-01T11:27:21.746Z,80.89
2022-11-01T11:28:21.810Z,80.35
2022-11-01T11:29:21.746Z,75.80
2022-11-01T11:30:21.717Z,76.36
2022-11-01T11:31:21.759Z,75.93
2022-11-01T11:32:21.724Z,73.00
2022-11-01T11:33:21.955Z,75.30
2022-11-01T11:34:22.688Z,78.39
2022-11-01T11:35:21.683Z,77.54
2022-11-01T11:36:21.690Z,79.15
2022-11-01T11:37:21.704Z,73.31
2022-11-01T11:38:21.826Z,73.43
2022-11-01T11:39:21.667Z,77.50
2022-11-01T11:40:21.649Z,71.52
2022-11-01T11:41:21.668Z,73.75
2022-11-01T11:42:21.694Z,73.80
2022-11-01T11:43:22.325Z,78.08
2022-11-01T11:44:21.679Z,79.48
2022-11-01T11:45:21.680Z,83.05
2022-11-01T11:46:21.632Z,76.95
2022-11-01T11:47:21.791Z,73.57
2022-11-01T11:48:21.604Z,65.74
2022-11-01T11:49:21.712Z,76.08
2022-11-01T11:50:21.584Z,77.39
2022-11-01T11:51:21.583Z,74.83
2022-11-01T11:52:24.371Z,74.13
2022-11-01T11:53:22.609Z,77.05
2022-11-01T11:54:21.600Z,70.77
2022-11-01T11:55:21.570Z,75.07
2022-11-01T11:56:21.600Z,77.06
2022-11-01T11:57:21.583Z,67.55
2022-11-01T11:58:21.576Z,73.52
2022-11-01T11:59:21.555Z,72.91
2022-11-01T12:00:21.651Z,78.22
2022-11-01T12:01:21.681Z,78.23
2022-11-01T12:02:21.568Z,76.66
2022-11-01T12:03:21.518Z,78.87
2022-11-01T12:04:21.513Z,79.97
2022-11-01T12:05:21.536Z,65.85
2022-11-01T12:06:21.515Z,73.09
2022-11-01T12:07:21.493Z,73.48
2022-11-01T12:08:21.508Z,71.53
2022-11-01T12:09:22.975Z,68.03
2022-11-01T12:10:21.482Z,81.19
2022-11-01T12:11:21.632Z,76.63
2022-11-01T12:12:21.474Z,77.31
2022-11-01T12:13:21.440Z,70.29
2022-11-01T12:14:21.452Z,82.88
2022-11-01T12:15:21.442Z,68.80
2022-11-01T12:16:21.599Z,73.10
2022-11-01T12:17:21.438Z,69.78
2022-11-01T12:18:21.432Z,78.15
2022-11-01T12:19:21.419Z,79.95
2022-11-01T12:20:21.416Z,79.54
2022-11-01T12:21:21.428Z,78.00
2022-11-01T12:22:21.537Z,74.67
2022-11-01T12:23:22.394Z,83.53
2022-11-01T12:24:21.407Z,64.72
2022-11-01T12:25:21.386Z,76.98
2022-11-01T12:26:21.391Z,68.17
2022-11-01T12:27:21.488Z,78.64
2022-11-01T12:28:21.416Z,77.12
2022-11-01T12:29:21.408Z,79.03
2022-11-01T12:30:21.361Z,70.11
2022-11-01T12:31:21.473Z,77.20
2022-11-01T12:32:21.351Z,75.36
2022-11-01T12:33:21.410Z,74.64
2022-11-01T12:34:21.333Z,77.01
2022-11-01T12:35:21.345Z,73.50
2022-11-01T12:36:21.348Z,71.54
2022-11-01T12:37:21.352Z,66.07
2022-11-01T12:38:21.352Z,75.39
2022-11-01T12:39:21.307Z,68.58
2022-11-01T12:40:21.308Z,77.78
2022-11-01T12:41:21.313Z,76.79
2022-11-01T12:42:21.295Z,77.02
2022-11-01T12:43:21.291Z,70.58
2022-11-01T12:44:21.323Z,74.31
2022-11-01T12:45:21.299Z,76.17
2022-11-01T12:46:21.264Z,78.01
2022-11-01T12:47:21.257Z,73.53
2022-11-01T12:48:21.301Z,80.80
2022-11-01T12:49:21.317Z,75.31
2022-11-01T12:50:21.259Z,75.30
2022-11-01T12:51:21.285Z,75.75
2022-11-01T12:52:21.273Z,71.36
2022-11-01T12:53:21.214Z,78.86
2022-11-01T12:54:21.234Z,71.11
2022-11-01T12:55:21.294Z,74.03
2022-11-01T12:56:21.218Z,67.15